Time;durP1;ratioP1;P1;durP2;ratioP2;P2;SDS_P1;SDS_P2;PMS_P1;PMS_P2;Temp;Humidity;BMP_temperature;BMP_pressure;BME280_temperature;BME280_humidity;BME280_pressure;Samples;Min_cycle;Max_cycle;Signal;HPM_P1;HPM_P2
2021/06/05 00:00:48;;;;;;;4.15;2.75;;;14.90;99.90;;;;;;4974545;28;20050;-91
2021/06/05 00:03:18;;;;;;;;;;;14.90;99.90;;;;;;4984164;28;20073;-92
2021/06/05 00:05:48;;;;;;;6.05;3.38;;;14.80;99.90;;;;;;4999043;28;20255;-92
2021/06/05 00:08:20;;;;;;;5.47;2.90;;;14.80;99.90;;;;;;4986844;28;20540;-92
2021/06/05 00:10:51;;;;;;;4.57;2.95;;;14.70;99.90;;;;;;5001396;28;20053;-92
2021/06/05 00:13:25;;;;;;;6.22;3.28;;;14.60;99.90;;;;;;4985406;28;20052;-93
2021/06/05 00:15:53;;;;;;;6.32;3.42;;;14.60;99.90;;;;;;5004772;28;20137;-92
2021/06/05 00:18:20;;;;;;;4.38;3.45;;;14.60;99.90;;;;;;4997830;28;20125;-91
2021/06/05 00:20:48;;;;;;;5.88;3.63;;;14.60;99.90;;;;;;4977705;28;20125;-90
2021/06/05 00:23:22;;;;;;;5.70;3.05;;;14.60;99.90;;;;;;4980706;28;20043;-93
2021/06/05 00:25:53;;;;;;;4.25;2.45;;;14.60;99.90;;;;;;4980696;28;20051;-92
2021/06/05 00:28:25;;;;;;;8.45;2.75;;;14.70;99.90;;;;;;4996769;28;20130;-91
2021/06/05 00:30:52;;;;;;;7.30;2.28;;;14.80;99.90;;;;;;4996811;28;20057;-91
2021/06/05 00:33:20;;;;;;;5.93;2.13;;;15.00;99.90;;;;;;4993236;28;20050;-91
2021/06/05 00:35:47;;;;;;;2.72;1.75;;;15.10;99.90;;;;;;5005288;28;20153;-93
2021/06/05 00:38:16;;;;;;;3.67;2.10;;;15.10;99.90;;;;;;5002414;28;20056;-91
2021/06/05 00:40:47;;;;;;;3.90;2.08;;;15.10;99.90;;;;;;4997686;28;20056;-92
2021/06/05 00:43:20;;;;;;;6.47;2.15;;;15.20;99.90;;;;;;4978903;28;20098;-91
2021/06/05 00:45:48;;;;;;;2.40;2.10;;;15.20;99.90;;;;;;4994873;28;20042;-91
2021/06/05 00:48:16;;;;;;;2.38;1.77;;;15.20;99.90;;;;;;4992526;28;20048;-92
2021/06/05 00:50:45;;;;;;;3.25;2.03;;;15.20;99.90;;;;;;4983623;28;20468;-90
2021/06/05 00:53:16;;;;;;;5.68;2.00;;;15.20;99.90;;;;;;4966552;28;20399;-91
2021/06/05 00:55:49;;;;;;;4.15;1.88;;;15.20;99.90;;;;;;4992317;28;20403;-93
2021/06/05 00:58:16;;;;;;;5.07;1.85;;;15.30;99.90;;;;;;4975620;28;20381;-93
2021/06/05 01:00:49;;;;;;;3.72;2.00;;;15.30;99.90;;;;;;4990614;28;20121;-90
2021/06/05 01:03:17;;;;;;;3.80;2.17;;;15.20;99.90;;;;;;4996966;28;20129;-93
2021/06/05 01:05:45;;;;;;;2.80;2.03;;;15.20;99.90;;;;;;4997075;28;20056;-92
2021/06/05 01:09:07;;;;;;;3.38;1.73;;;15.20;99.90;;;;;;4995273;28;20121;-91
2021/06/05 01:11:52;;;;;;;2.45;2.00;;;15.20;99.90;;;;;;4942389;29;20035;-90
2021/06/05 01:14:28;;;;;;;4.13;2.17;;;15.30;99.90;;;;;;4993874;28;20079;-89
2021/06/05 01:16:59;;;;;;;2.83;1.98;;;15.30;99.90;;;;;;4992441;28;20482;-90
2021/06/05 01:19:54;;;;;;;1.67;1.58;;;15.30;99.90;;;;;;4988172;28;20050;-91
2021/06/05 01:22:30;;;;;;;3.22;1.90;;;15.20;99.90;;;;;;5002916;28;20080;-91
2021/06/05 01:25:03;;;;;;;3.15;2.08;;;15.20;99.90;;;;;;5003505;28;20056;-92
2021/06/05 01:27:38;;;;;;;6.78;2.30;;;15.20;99.90;;;;;;4999416;28;20057;-91
2021/06/05 01:30:20;;;;;;;3.35;2.00;;;15.20;99.90;;;;;;4978653;28;20129;-94
2021/06/05 01:32:47;;;;;;;6.00;1.75;;;15.20;99.90;;;;;;5000842;28;20050;-90
2021/06/05 01:35:15;;;;;;;2.78;1.77;;;15.20;99.90;;;;;;4994719;28;20085;-94
2021/06/05 01:37:43;;;;;;;3.00;1.60;;;15.20;99.90;;;;;;4998251;28;20051;-93
2021/06/05 01:40:15;;;;;;;3.90;1.58;;;15.20;99.90;;;;;;5011122;28;20045;-92
2021/06/05 01:42:47;;;;;;;6.47;2.35;;;15.10;99.90;;;;;;5003568;28;20073;-91
2021/06/05 01:45:20;;;;;;;;;;;15.10;99.90;;;;;;4993851;28;20476;-90
2021/06/05 01:47:50;;;;;;;;;;;15.00;99.90;;;;;;4992748;28;19926;-91
2021/06/05 01:50:17;;;;;;;2.15;1.50;;;15.00;99.90;;;;;;5001945;28;19926;-91
2021/06/05 01:52:46;;;;;;;3.33;2.20;;;15.00;99.90;;;;;;5001751;28;20060;-93
2021/06/05 01:55:17;;;;;;;7.60;1.92;;;15.00;99.90;;;;;;4994272;28;20051;-91
2021/06/05 01:57:53;;;;;;;3.33;1.85;;;15.00;99.90;;;;;;4988419;28;20060;-92
2021/06/05 02:00:24;;;;;;;3.10;1.98;;;15.00;99.90;;;;;;4993052;28;20047;-92
2021/06/05 02:02:55;;;;;;;5.05;1.83;;;15.10;99.90;;;;;;5003708;28;20056;-91
2021/06/05 02:05:26;;;;;;;3.05;1.55;;;15.10;99.90;;;;;;4991579;28;20092;-93
2021/06/05 02:07:53;;;;;;;2.67;1.58;;;15.10;99.90;;;;;;4977886;28;20042;-91
2021/06/05 02:10:24;;;;;;;2.72;1.67;;;15.20;99.90;;;;;;5008728;28;20056;-89
2021/06/05 02:12:54;;;;;;;4.38;1.60;;;15.20;99.90;;;;;;4981805;28;20353;-93
2021/06/05 02:15:27;;;;;;;6.25;1.70;;;15.20;99.90;;;;;;4994229;28;20092;-91
2021/06/05 02:17:57;;;;;;;2.92;1.95;;;15.30;99.90;;;;;;5008824;28;20452;-91
2021/06/05 02:20:29;;;;;;;2.28;1.58;;;15.20;99.90;;;;;;5005453;28;20125;-92
2021/06/05 02:22:58;;;;;;;5.27;2.10;;;15.20;99.90;;;;;;5014307;28;20046;-92
2021/06/05 02:25:27;;;;;;;3.40;1.95;;;15.20;99.90;;;;;;4987227;28;20071;-92
2021/06/05 02:27:57;;;;;;;3.42;1.70;;;15.20;99.90;;;;;;4995247;28;20121;-92
2021/06/05 02:30:28;;;;;;;4.63;2.00;;;15.10;99.90;;;;;;4994219;28;20057;-92
2021/06/05 02:32:57;;;;;;;3.28;2.08;;;15.10;99.90;;;;;;5001236;28;20133;-90
2021/06/05 02:35:50;;;;;;;5.65;1.90;;;15.10;99.90;;;;;;5009945;28;20135;-92
2021/06/05 02:38:20;;;;;;;3.00;1.80;;;15.10;99.90;;;;;;4974548;28;20046;-91
2021/06/05 02:40:54;;;;;;;1.70;1.60;;;15.20;99.90;;;;;;5004491;28;20049;-92
2021/06/05 02:43:32;;;;;;;2.85;1.45;;;15.20;99.90;;;;;;4978317;28;20125;-93
2021/06/05 02:46:02;;;;;;;2.47;1.80;;;15.20;99.90;;;;;;4994670;28;20113;-91
2021/06/05 02:48:47;;;;;;;4.80;1.77;;;15.20;99.90;;;;;;4973564;28;20053;-90
2021/06/05 02:51:15;;;;;;;2.75;2.20;;;15.20;99.90;;;;;;5001625;28;20056;-91
2021/06/05 02:53:42;;;;;;;3.25;1.80;;;15.20;99.90;;;;;;4992893;28;20068;-93
2021/06/05 02:56:10;;;;;;;3.75;2.10;;;15.10;99.90;;;;;;5004103;28;20184;-91
2021/06/05 02:58:39;;;;;;;2.80;2.00;;;15.10;99.90;;;;;;4981211;28;20050;-91
2021/06/05 03:01:08;;;;;;;2.63;1.80;;;15.10;99.90;;;;;;4993030;28;20046;-91
2021/06/05 03:03:36;;;;;;;2.75;1.90;;;15.10;99.90;;;;;;4991242;28;20230;-92
2021/06/05 03:06:07;;;;;;;3.90;1.77;;;15.20;99.90;;;;;;4994943;28;20137;-92
2021/06/05 03:08:41;;;;;;;3.33;1.88;;;15.20;99.90;;;;;;5000264;28;20100;-91
2021/06/05 03:11:17;;;;;;;5.55;2.15;;;15.20;99.90;;;;;;5011468;28;20050;-92
2021/06/05 03:13:50;;;;;;;5.53;2.17;;;15.20;99.90;;;;;;4999645;28;20047;-92
2021/06/05 03:16:18;;;;;;;3.63;2.60;;;15.20;99.90;;;;;;5004151;28;20069;-92
2021/06/05 03:18:46;;;;;;;5.90;2.22;;;15.10;99.90;;;;;;4999293;28;20712;-91
2021/06/05 03:21:20;;;;;;;2.88;1.63;;;15.10;99.90;;;;;;5009443;28;20132;-92
2021/06/05 03:23:48;;;;;;;2.47;1.88;;;15.10;99.90;;;;;;5011379;28;20060;-92
2021/06/05 03:26:17;;;;;;;3.88;1.88;;;15.10;99.90;;;;;;4972962;28;20046;-91
2021/06/05 03:28:49;;;;;;;3.10;1.75;;;15.10;99.90;;;;;;4973579;28;20443;-92
2021/06/05 03:31:19;;;;;;;2.60;1.92;;;15.10;99.90;;;;;;4989344;28;20146;-89
2021/06/05 03:33:48;;;;;;;2.50;1.52;;;15.10;99.90;;;;;;4992664;28;20117;-92
2021/06/05 03:36:19;;;;;;;6.18;1.50;;;15.20;99.90;;;;;;5006003;28;20108;-93
2021/06/05 03:38:50;;;;;;;2.33;1.70;;;15.30;99.90;;;;;;4966478;28;20058;-90
2021/06/05 03:41:21;;;;;;;3.30;1.63;;;15.30;99.90;;;;;;4972882;28;20061;-91
2021/06/05 03:43:48;;;;;;;4.35;1.77;;;15.30;99.90;;;;;;4986961;28;20081;-91
2021/06/05 03:46:18;;;;;;;6.28;1.50;;;15.30;99.90;;;;;;4993035;28;20428;-91
2021/06/05 03:48:46;;;;;;;2.20;2.00;;;15.30;99.90;;;;;;4976709;28;20062;-93
2021/06/05 03:51:16;;;;;;;2.30;1.65;;;15.30;99.90;;;;;;4991918;28;20054;-93
2021/06/05 03:53:46;;;;;;;3.90;1.75;;;15.30;99.90;;;;;;4994562;28;20050;-92
2021/06/05 03:56:18;;;;;;;3.72;1.75;;;15.30;99.90;;;;;;5000148;28;20047;-92
2021/06/05 03:58:48;;;;;;;3.60;1.95;;;15.30;99.90;;;;;;4996821;28;20050;-92
2021/06/05 04:01:27;;;;;;;3.33;1.65;;;15.30;99.90;;;;;;4979520;28;20125;-93
2021/06/05 04:03:55;;;;;;;4.13;2.17;;;15.30;99.90;;;;;;4998318;28;20128;-93
2021/06/05 04:06:26;;;;;;;3.85;1.80;;;15.30;99.90;;;;;;5011968;28;20432;-91
2021/06/05 04:08:55;;;;;;;4.65;1.73;;;15.30;99.90;;;;;;4992608;28;20050;-92
2021/06/05 04:11:23;;;;;;;4.60;1.90;;;15.30;99.90;;;;;;4991305;28;20137;-92
2021/06/05 04:13:50;;;;;;;3.70;1.75;;;15.30;99.90;;;;;;4992210;28;20495;-92
2021/06/05 04:16:17;;;;;;;3.05;1.50;;;15.30;99.90;;;;;;4992942;28;20105;-91
2021/06/05 04:18:53;;;;;;;4.40;1.90;;;15.30;99.90;;;;;;5004593;28;20054;-92
2021/06/05 04:21:22;;;;;;;3.08;1.92;;;15.30;99.90;;;;;;4973153;28;20039;-92
2021/06/05 04:23:49;;;;;;;4.30;2.20;;;15.30;99.90;;;;;;4989192;28;20050;-93
2021/06/05 04:26:38;;;;;;;1.70;1.50;;;15.30;99.90;;;;;;4995486;28;20451;-91
2021/06/05 04:29:09;;;;;;;3.03;1.65;;;15.40;99.90;;;;;;4992613;28;20050;-92
2021/06/05 04:31:36;;;;;;;2.72;1.70;;;15.40;99.90;;;;;;4978310;28;20046;-89
2021/06/05 04:34:06;;;;;;;1.60;1.50;;;15.40;99.90;;;;;;4989687;28;20070;-92
2021/06/05 04:36:37;;;;;;;3.00;1.70;;;15.40;99.90;;;;;;4971742;28;20348;-93
2021/06/05 04:39:05;;;;;;;3.38;1.60;;;15.50;99.90;;;;;;4999364;28;20415;-91
2021/06/05 04:41:35;;;;;;;2.88;1.50;;;15.50;99.90;;;;;;4993394;28;20118;-92
2021/06/05 04:44:12;;;;;;;;;;;;;;;;;;;;;
2021/06/05 04:46:54;;;;;;;6.60;1.67;;;15.60;99.90;;;;;;4978932;28;20103;-93
2021/06/05 04:49:21;;;;;;;5.30;1.40;;;15.60;99.90;;;;;;5005328;28;20050;-90
2021/06/05 04:51:49;;;;;;;2.50;1.70;;;15.60;99.90;;;;;;4994188;28;20056;-91
2021/06/05 04:54:26;;;;;;;5.25;2.50;;;15.70;99.90;;;;;;5005846;28;20061;-90
2021/06/05 04:56:59;;;;;;;2.50;1.30;;;15.70;99.90;;;;;;5000596;28;20097;-90
2021/06/05 04:59:31;;;;;;;4.22;1.48;;;15.80;99.90;;;;;;4993728;28;20121;-92
2021/06/05 05:02:02;;;;;;;3.20;1.30;;;15.80;99.90;;;;;;4990905;28;20141;-90
2021/06/05 05:04:29;;;;;;;1.70;1.40;;;15.90;99.90;;;;;;4993864;28;20093;-92
2021/06/05 05:06:58;;;;;;;4.75;1.70;;;16.00;99.90;;;;;;5007146;28;20054;-91
2021/06/05 05:09:26;;;;;;;2.88;1.45;;;16.00;99.90;;;;;;4985398;28;20463;-91
2021/06/05 05:11:55;;;;;;;2.65;1.33;;;16.10;99.90;;;;;;4997723;28;20047;-90
2021/06/05 05:14:25;;;;;;;2.63;1.40;;;16.20;99.90;;;;;;4976534;28;20061;-90
2021/06/05 05:16:54;;;;;;;3.65;1.40;;;16.30;99.90;;;;;;4994522;28;20056;-91
2021/06/05 05:19:21;;;;;;;2.42;1.45;;;16.40;99.90;;;;;;4993137;28;20054;-91
2021/06/05 05:22:02;;;;;;;4.05;1.25;;;16.50;99.90;;;;;;5004787;28;20463;-91
2021/06/05 05:24:29;;;;;;;3.15;1.85;;;16.50;99.90;;;;;;4994644;28;20058;-92
2021/06/05 05:26:58;;;;;;;4.35;1.60;;;16.50;99.90;;;;;;5002972;28;20074;-92
2021/06/05 05:29:31;;;;;;;3.85;1.60;;;16.50;99.90;;;;;;4987421;28;20058;-92
2021/06/05 05:32:00;;;;;;;2.83;1.25;;;16.50;99.90;;;;;;4986604;28;20060;-90
2021/06/05 05:34:27;;;;;;;2.08;1.23;;;16.50;99.90;;;;;;5011303;28;20061;-90
2021/06/05 05:36:55;;;;;;;3.58;1.50;;;16.60;99.90;;;;;;4984221;28;20121;-90
2021/06/05 05:39:22;;;;;;;4.05;1.77;;;16.60;99.90;;;;;;5000954;28;20051;-90
2021/06/05 05:41:54;;;;;;;4.07;1.63;;;16.60;99.90;;;;;;4982645;28;20435;-92
2021/06/05 05:44:27;;;;;;;1.67;1.27;;;16.60;99.90;;;;;;5000531;28;20081;-92
2021/06/05 05:47:15;;;;;;;;;;;16.60;99.90;;;;;;4984723;28;20038;-92
2021/06/05 05:49:42;;;;;;;2.33;1.33;;;16.60;99.90;;;;;;5013389;28;19928;-90
2021/06/05 05:52:19;;;;;;;2.63;1.60;;;16.70;99.90;;;;;;4994017;28;20081;-92
2021/06/05 05:54:49;;;;;;;3.25;1.40;;;16.70;99.90;;;;;;5007581;28;20046;-93
2021/06/05 05:57:25;;;;;;;3.42;1.42;;;16.80;99.90;;;;;;4978069;28;20375;-90
2021/06/05 05:59:55;;;;;;;2.95;1.30;;;16.90;99.90;;;;;;4983261;28;20053;-91
2021/06/05 06:02:24;;;;;;;2.80;1.40;;;16.80;99.90;;;;;;4996993;28;20081;-93
2021/06/05 06:04:52;;;;;;;2.53;1.80;;;16.80;99.90;;;;;;5003059;28;20058;-92
2021/06/05 06:07:24;;;;;;;2.90;1.42;;;16.80;99.90;;;;;;4985148;28;20379;-92
2021/06/05 06:10:04;;;;;;;2.83;1.50;;;17.00;99.90;;;;;;4998573;28;20050;-94
2021/06/05 06:12:31;;;;;;;5.97;1.60;;;17.00;99.90;;;;;;4986525;28;20058;-91
2021/06/05 06:15:01;;;;;;;3.50;1.55;;;17.10;99.90;;;;;;4996942;28;20095;-93
2021/06/05 06:17:28;;;;;;;3.28;1.38;;;17.20;99.90;;;;;;4985560;28;20088;-93
2021/06/05 06:19:55;;;;;;;2.67;1.50;;;17.30;99.90;;;;;;4998247;28;20073;-91
2021/06/05 06:22:31;;;;;;;2.47;1.52;;;17.30;99.90;;;;;;4998035;28;20061;-91
2021/06/05 06:25:04;;;;;;;3.67;1.60;;;17.30;99.90;;;;;;4981031;28;20069;-92
2021/06/05 06:27:33;;;;;;;2.70;1.63;;;17.50;99.90;;;;;;4995238;28;20050;-92
2021/06/05 06:30:09;;;;;;;2.75;1.40;;;17.60;99.90;;;;;;4981552;28;20046;-93
2021/06/05 06:32:39;;;;;;;2.03;1.48;;;17.80;99.90;;;;;;4993614;28;20050;-93
2021/06/05 06:35:06;;;;;;;4.30;1.58;;;17.80;99.90;;;;;;4986711;28;20049;-92
2021/06/05 06:37:37;;;;;;;2.53;1.40;;;17.80;99.90;;;;;;5000950;28;20451;-92
2021/06/05 06:40:05;;;;;;;1.95;1.60;;;17.70;99.90;;;;;;4985235;28;20153;-92
2021/06/05 06:42:40;;;;;;;3.78;1.60;;;17.70;99.90;;;;;;4978817;28;20322;-92
2021/06/05 06:45:37;;;;;;;1.42;1.30;;;17.80;99.90;;;;;;4992138;28;20118;-92
2021/06/05 06:48:31;;;;;;;7.43;1.55;;;17.80;99.90;;;;;;4988989;28;20054;-93
2021/06/05 06:51:01;;;;;;;4.78;1.40;;;17.80;99.90;;;;;;4997575;28;20050;-93
2021/06/05 06:53:39;;;;;;;2.65;1.20;;;17.80;99.90;;;;;;4967258;28;20053;-92
2021/06/05 06:56:07;;;;;;;1.38;1.13;;;17.90;99.90;;;;;;4988282;28;20396;-90
2021/06/05 06:58:35;;;;;;;3.95;1.20;;;17.80;99.90;;;;;;4994144;28;20077;-93
2021/06/05 07:01:11;;;;;;;5.20;1.55;;;17.90;99.90;;;;;;4977120;28;20046;-92
2021/06/05 07:03:41;;;;;;;2.08;1.15;;;17.80;99.90;;;;;;4993698;28;20133;-92
2021/06/05 07:06:18;;;;;;;3.22;1.30;;;17.80;99.90;;;;;;4995046;28;20120;-91
2021/06/05 07:08:45;;;;;;;4.97;1.50;;;17.90;99.90;;;;;;5007363;28;20050;-93
2021/06/05 07:11:32;;;;;;;;;;;;;;;;;;;;;
2021/06/05 07:14:09;;;;;;;3.33;1.10;;;17.90;99.90;;;;;;4994616;28;20439;-91
2021/06/05 07:17:07;;;;;;;4.15;0.95;;;18.00;99.90;;;;;;4976891;28;20058;-92
2021/06/05 07:19:36;;;;;;;2.72;1.20;;;18.20;99.90;;;;;;4992763;28;20364;-91
2021/06/05 07:22:10;;;;;;;2.53;1.33;;;18.30;99.90;;;;;;4975468;28;20497;-91
2021/06/05 07:25:05;;;;;;;2.08;1.02;;;18.40;99.90;;;;;;4922215;29;20163;-92
2021/06/05 07:27:49;;;;;;;4.07;1.45;;;18.30;99.90;;;;;;4934673;29;20056;-92
2021/06/05 07:30:48;;;;;;;3.47;1.30;;;18.20;99.90;;;;;;4905015;29;20135;-91
2021/06/05 07:33:25;;;;;;;1.23;0.93;;;18.20;99.90;;;;;;4899281;29;20047;-91
2021/06/05 07:35:54;;;;;;;1.55;1.00;;;18.10;99.90;;;;;;4934596;29;20055;-90
2021/06/05 07:38:24;;;;;;;3.67;1.30;;;18.10;99.90;;;;;;4933358;29;20059;-92
2021/06/05 07:40:56;;;;;;;5.72;1.60;;;18.00;99.90;;;;;;4933593;29;20198;-91
2021/06/05 07:43:39;;;;;;;5.38;1.52;;;17.80;99.90;;;;;;4952933;28;20599;-91
2021/06/05 07:46:09;;;;;;;2.83;1.63;;;17.60;99.90;;;;;;4978908;28;20051;-92
2021/06/05 07:48:46;;;;;;;;;;;;;;;;;;;;;
2021/06/05 07:51:39;;;;;;;2.88;1.40;;;17.60;99.90;;;;;;4992590;28;20138;-93
2021/06/05 07:54:07;;;;;;;2.00;1.42;;;17.60;99.90;;;;;;4977201;28;20051;-91
2021/06/05 07:57:03;;;;;;;4.10;1.23;;;17.70;99.90;;;;;;4994593;28;20711;-92
2021/06/05 07:59:49;;;;;;;2.47;1.48;;;18.00;99.90;;;;;;4978353;28;20051;-92
2021/06/05 08:02:17;;;;;;;3.08;1.20;;;18.20;99.90;;;;;;4964158;28;20142;-92
2021/06/05 08:04:55;;;;;;;3.85;1.27;;;18.40;99.90;;;;;;4983266;28;20074;-92
2021/06/05 08:07:30;;;;;;;;;;;18.40;99.90;;;;;;4984882;28;20062;-92
2021/06/05 08:10:13;;;;;;;3.00;1.30;;;18.60;99.90;;;;;;4988032;28;19922;-93
2021/06/05 08:12:47;;;;;;;3.33;1.40;;;18.70;99.90;;;;;;4979868;28;20054;-92
2021/06/05 08:15:35;;;;;;;2.22;1.23;;;18.80;99.90;;;;;;4994823;28;20482;-92
2021/06/05 08:18:17;;;;;;;1.42;0.98;;;19.10;99.90;;;;;;4983861;28;20216;-92
2021/06/05 08:21:02;;;;;;;2.45;1.30;;;19.20;99.90;;;;;;4992924;28;20065;-93
2021/06/05 08:23:38;;;;;;;3.90;1.30;;;19.00;99.90;;;;;;4988543;28;20042;-92
2021/06/05 08:26:12;;;;;;;5.18;1.40;;;19.00;99.90;;;;;;4981392;28;20156;-91
2021/06/05 08:28:48;;;;;;;2.65;1.25;;;19.10;99.90;;;;;;4982782;28;20138;-92
2021/06/05 08:31:20;;;;;;;4.50;1.48;;;19.20;99.90;;;;;;4999178;28;20050;-92
2021/06/05 08:33:48;;;;;;;1.65;1.17;;;19.30;99.90;;;;;;4999144;28;20074;-94
2021/06/05 08:36:23;;;;;;;1.80;1.17;;;19.60;99.90;;;;;;4956006;28;20059;-92
2021/06/05 08:38:59;;;;;;;2.28;1.10;;;19.80;99.90;;;;;;4983203;28;20093;-92
2021/06/05 08:42:02;;;;;;;2.70;1.25;;;19.80;99.90;;;;;;4976125;28;20049;-92
2021/06/05 08:44:41;;;;;;;2.40;1.17;;;20.00;99.90;;;;;;4958454;28;20042;-93
2021/06/05 08:47:39;;;;;;;3.85;1.30;;;20.40;99.90;;;;;;4951330;28;20145;-90
2021/06/05 08:50:17;;;;;;;2.63;1.10;;;20.40;99.90;;;;;;4984844;28;20046;-93
2021/06/05 08:52:57;;;;;;;2.85;1.10;;;20.30;99.90;;;;;;4969610;28;20050;-91
2021/06/05 08:55:54;;;;;;;4.65;1.20;;;20.30;99.90;;;;;;4965839;28;20050;-93
2021/06/05 08:59:03;;;;;;;2.95;1.33;;;20.40;99.90;;;;;;4974577;28;20149;-92
2021/06/05 09:01:42;;;;;;;1.85;1.08;;;20.60;99.90;;;;;;4924599;28;20403;-92
2021/06/05 09:04:28;;;;;;;2.83;1.25;;;20.40;99.90;;;;;;4968014;28;20404;-93
2021/06/05 09:07:07;;;;;;;4.13;1.30;;;20.50;99.90;;;;;;4989036;28;20464;-94
2021/06/05 09:09:46;;;;;;;2.72;1.05;;;20.80;99.90;;;;;;4960503;28;20066;-92
2021/06/05 09:12:17;;;;;;;1.95;0.98;;;21.40;99.90;;;;;;4990006;28;20085;-93
2021/06/05 09:14:45;;;;;;;2.63;1.38;;;21.70;99.90;;;;;;4977812;28;20081;-93
2021/06/05 09:17:30;;;;;;;2.80;1.25;;;21.90;99.90;;;;;;4974525;28;20583;-94
2021/06/05 09:20:19;;;;;;;;;;;;;;;;;;;;;
2021/06/05 09:23:09;;;;;;;3.78;1.20;;;21.10;99.90;;;;;;4975337;28;20460;-92
2021/06/05 09:25:51;;;;;;;2.50;1.40;;;20.90;99.90;;;;;;4983720;28;20062;-92
2021/06/05 09:28:35;;;;;;;2.45;1.20;;;20.60;99.90;;;;;;4959743;29;20055;-90
2021/06/05 09:31:27;;;;;;;2.95;1.40;;;20.10;99.90;;;;;;4957005;28;20055;-94
2021/06/05 09:33:57;;;;;;;2.80;1.40;;;19.90;99.90;;;;;;4967014;28;20054;-92
2021/06/05 09:36:30;;;;;;;4.70;1.77;;;19.40;99.90;;;;;;4963039;28;20099;-94
2021/06/05 09:39:34;;;;;;;3.13;1.83;;;19.30;99.90;;;;;;4991658;28;20082;-93
2021/06/05 09:45:08;;;;;;;4.05;1.98;;;19.10;99.90;;;;;;5005044;28;20058;-93
2021/06/05 09:47:50;;;;;;;5.95;2.30;;;18.90;99.90;;;;;;4979704;28;20068;-92
2021/06/05 09:50:23;;;;;;;5.30;1.75;;;18.80;99.90;;;;;;4994742;28;20050;-91
2021/06/05 09:52:53;;;;;;;2.78;1.83;;;18.70;99.90;;;;;;5006678;28;20046;-92
2021/06/05 09:55:25;;;;;;;4.18;1.60;;;18.50;99.90;;;;;;4983883;28;20045;-94
2021/06/05 09:57:55;;;;;;;4.07;2.08;;;18.40;99.90;;;;;;5014227;28;20063;-93
2021/06/05 10:00:32;;;;;;;3.35;2.63;;;18.40;99.90;;;;;;5011071;28;20061;-92
2021/06/05 10:03:20;;;;;;;3.65;2.00;;;18.60;99.90;;;;;;4983693;28;20055;-91
2021/06/05 10:05:52;;;;;;;3.70;1.90;;;18.70;99.90;;;;;;4987615;28;20141;-92
2021/06/05 10:08:39;;;;;;;2.75;1.95;;;18.70;99.90;;;;;;5013058;28;20459;-93
2021/06/05 10:11:20;;;;;;;3.20;1.65;;;18.60;99.90;;;;;;4992231;28;20463;-91
2021/06/05 10:14:14;;;;;;;4.50;2.03;;;18.60;99.90;;;;;;4996957;28;20363;-93
2021/06/05 10:16:51;;;;;;;6.25;2.13;;;18.60;99.90;;;;;;4979470;28;20114;-91
2021/06/05 10:19:43;;;;;;;3.58;2.17;;;18.70;99.90;;;;;;4978920;28;20430;-92
2021/06/05 10:22:14;;;;;;;3.92;2.00;;;18.90;99.90;;;;;;5009444;28;20052;-92
2021/06/05 10:24:52;;;;;;;2.60;1.80;;;19.10;99.90;;;;;;4995314;28;20043;-91
2021/06/05 10:27:35;;;;;;;2.72;1.73;;;19.20;99.90;;;;;;4994714;28;20078;-91
2021/06/05 10:30:34;;;;;;;2.90;1.73;;;19.40;99.90;;;;;;4995719;28;20050;-93
2021/06/05 10:33:23;;;;;;;3.97;1.38;;;19.60;99.90;;;;;;4976844;28;20096;-93
2021/06/05 10:35:51;;;;;;;2.40;1.80;;;19.80;99.90;;;;;;5006172;28;20101;-91
2021/06/05 10:38:27;;;;;;;3.60;1.70;;;20.00;99.90;;;;;;5006393;28;20042;-92
2021/06/05 10:40:56;;;;;;;1.90;1.60;;;20.20;99.90;;;;;;5010514;28;20666;-91
2021/06/05 10:43:33;;;;;;;2.42;1.60;;;20.60;99.90;;;;;;4980040;28;20058;-92
2021/06/05 10:46:32;;;;;;;;;;;;;;;;;;;;;
2021/06/05 10:49:17;;;;;;;2.25;1.30;;;22.00;99.90;;;;;;4984809;28;20053;-93
2021/06/05 10:52:16;;;;;;;1.73;1.20;;;22.60;99.90;;;;;;4989059;28;20125;-94
2021/06/05 10:55:44;;;;;;;3.42;1.50;;;22.80;99.90;;;;;;4981982;28;20344;-94
2021/06/05 10:58:38;;;;;;;2.88;1.42;;;22.00;99.90;;;;;;4940310;28;20058;-93
2021/06/05 11:02:02;;;;;;;;;;;;;;;;;;;;;
2021/06/05 11:04:59;;;;;;;2.85;1.33;;;21.50;99.90;;;;;;4934732;29;20062;-94
2021/06/05 11:07:38;;;;;;;2.10;1.23;;;20.90;99.90;;;;;;4936739;29;20833;-93
2021/06/05 11:10:49;;;;;;;1.88;1.70;;;20.50;99.90;;;;;;4921096;29;20059;-95
2021/06/05 11:13:42;;;;;;;1.95;1.65;;;20.30;99.90;;;;;;4945579;29;20051;-93
2021/06/05 11:16:15;;;;;;;2.88;1.80;;;20.20;99.90;;;;;;4937933;29;20047;-93
2021/06/05 11:19:07;;;;;;;3.08;1.85;;;19.80;99.90;;;;;;4942613;29;20106;-93
2021/06/05 11:21:43;;;;;;;3.40;1.60;;;20.20;99.90;;;;;;4942853;28;20055;-94
2021/06/05 11:24:18;;;;;;;3.28;1.65;;;20.40;99.90;;;;;;5009979;28;20120;-93
2021/06/05 11:26:56;;;;;;;3.88;1.27;;;20.90;99.90;;;;;;4996719;28;20058;-93
2021/06/05 11:29:29;;;;;;;1.17;1.02;;;21.80;99.90;;;;;;4982820;28;20480;-93
2021/06/05 11:32:06;;;;;;;2.10;1.23;;;22.60;99.90;;;;;;5005137;28;20049;-92
2021/06/05 11:35:52;;;;;;;1.35;1.20;;;22.30;99.90;;;;;;4949854;29;20071;-93
2021/06/05 11:38:47;;;;;;;2.80;1.52;;;21.10;99.90;;;;;;4947663;28;20050;-93
2021/06/05 11:41:52;;;;;;;1.95;1.00;;;20.50;99.90;;;;;;4998496;28;20066;-92
2021/06/05 11:44:51;;;;;;;2.55;0.95;;;20.40;99.90;;;;;;4998203;28;20054;-93
2021/06/05 11:47:24;;;;;;;1.00;0.93;;;20.90;99.90;;;;;;4980452;28;20043;-93
2021/06/05 11:50:31;;;;;;;1.90;0.80;;;21.10;99.90;;;;;;4990296;28;20126;-92
2021/06/05 11:53:55;;;;;;;1.42;1.00;;;21.60;99.90;;;;;;5000451;28;20053;-92
2021/06/05 11:56:53;;;;;;;2.60;1.00;;;21.30;99.90;;;;;;4998608;28;20124;-94
2021/06/05 11:59:45;;;;;;;0.75;0.60;;;20.80;99.90;;;;;;4928678;29;20052;-91
2021/06/05 12:02:59;;;;;;;2.72;0.68;;;20.50;99.90;;;;;;4922857;29;20112;-92
2021/06/05 12:05:44;;;;;;;1.00;0.63;;;20.60;99.90;;;;;;4910634;29;20169;-94
2021/06/05 12:08:38;;;;;;;2.58;0.75;;;20.50;99.90;;;;;;4902182;29;20053;-91
2021/06/05 12:11:22;;;;;;;2.20;0.60;;;20.20;99.90;;;;;;4918919;29;20757;-92
2021/06/05 12:14:18;;;;;;;2.17;0.75;;;20.10;99.90;;;;;;4918284;29;20059;-93
2021/06/05 12:17:36;;;;;;;1.25;0.65;;;20.00;99.90;;;;;;4945995;28;20061;-93
2021/06/05 12:20:07;;;;;;;1.80;0.93;;;19.80;99.90;;;;;;5015685;28;20068;-91
2021/06/05 12:22:58;;;;;;;0.80;0.80;;;19.70;99.90;;;;;;4999611;28;20042;-95
2021/06/05 12:25:39;;;;;;;1.38;0.85;;;19.80;99.90;;;;;;4993840;28;20082;-94
2021/06/05 12:28:25;;;;;;;1.30;0.70;;;19.80;99.90;;;;;;4993181;28;20118;-92
2021/06/05 12:31:34;;;;;;;1.70;0.93;;;20.00;99.90;;;;;;4982546;28;20060;-93
2021/06/05 12:34:37;;;;;;;;;;;;;;;;;;;;;
2021/06/05 12:37:26;;;;;;;3.33;0.80;;;20.60;99.90;;;;;;4998103;28;20061;-92
2021/06/05 12:43:31;;;;;;;0.65;0.65;;;21.40;99.90;;;;;;4965275;28;20504;-91
2021/06/05 12:46:24;;;;;;;2.10;0.90;;;21.10;99.90;;;;;;4982472;28;20118;-91
2021/06/05 12:48:58;;;;;;;1.05;0.70;;;21.30;99.90;;;;;;4971981;28;20082;-91
2021/06/05 12:51:48;;;;;;;1.65;0.50;;;21.30;99.90;;;;;;4982893;28;20069;-93
2021/06/05 12:54:29;;;;;;;0.60;0.60;;;20.60;99.90;;;;;;4987647;28;20074;-93
2021/06/05 12:56:58;;;;;;;1.85;0.90;;;20.00;99.90;;;;;;4963712;28;20046;-92
2021/06/05 12:59:50;;;;;;;0.73;0.60;;;20.10;99.90;;;;;;4984120;28;20050;-93
2021/06/05 13:02:28;;;;;;;1.92;1.08;;;20.30;99.90;;;;;;4958980;28;20057;-93
2021/06/05 13:05:24;;;;;;;1.35;0.80;;;20.30;99.90;;;;;;4980255;28;20051;-92
2021/06/05 13:08:19;;;;;;;1.75;0.40;;;20.50;99.90;;;;;;4965423;28;20050;-91
2021/06/05 13:11:04;;;;;;;0.65;0.60;;;20.80;99.90;;;;;;4987126;28;20106;-93
2021/06/05 13:22:33;;;;;;;1.55;0.68;;;21.00;99.90;;;;;;4890007;29;20088;-92
2021/06/05 13:25:38;;;;;;;1.50;0.50;;;20.20;99.90;;;;;;4900810;29;20782;-94
2021/06/05 13:28:15;;;;;;;0.68;0.50;;;20.00;99.90;;;;;;4992456;28;20459;-91
2021/06/05 13:30:55;;;;;;;0.95;0.50;;;20.10;99.90;;;;;;4980259;28;20097;-93
2021/06/05 13:33:38;;;;;;;0.50;0.50;;;20.50;99.90;;;;;;4962341;28;20085;-93
2021/06/05 13:36:33;;;;;;;1.35;0.40;;;20.80;99.90;;;;;;4990696;28;20066;-93
2021/06/05 13:39:29;;;;;;;0.65;0.57;;;21.20;99.90;;;;;;4998641;28;20073;-91
2021/06/05 13:42:42;;;;;;;0.47;0.47;;;20.90;99.90;;;;;;4911395;29;20331;-92
2021/06/05 13:45:17;;;;;;;0.85;0.65;;;20.30;99.90;;;;;;4902450;29;20431;-94
2021/06/05 13:47:45;;;;;;;0.73;0.50;;;20.20;99.90;;;;;;4896131;29;20142;-93
2021/06/05 13:50:16;;;;;;;0.95;0.63;;;20.20;99.90;;;;;;4905780;29;20052;-93
2021/06/05 13:53:04;;;;;;;1.38;0.90;;;20.10;99.90;;;;;;4931748;29;20111;-92
2021/06/05 13:56:11;;;;;;;2.05;0.60;;;20.20;99.90;;;;;;4909087;29;20066;-92
2021/06/05 13:58:38;;;;;;;1.58;0.82;;;20.40;99.90;;;;;;4935448;29;20131;-92
2021/06/05 14:01:07;;;;;;;1.73;0.90;;;20.30;99.90;;;;;;4939415;29;20063;-93
2021/06/05 14:03:37;;;;;;;2.85;0.80;;;20.20;99.90;;;;;;4924625;29;20044;-91
2021/06/05 14:06:32;;;;;;;1.25;0.65;;;20.00;99.90;;;;;;4918375;29;20164;-92
2021/06/05 14:09:15;;;;;;;;;;;;;;;;;;;;;